Terminal Aerodrome Forecast
Issued by NWS

Home | Current Version | Previous Version | Text Only | Print | Product List | Glossary On
Versions: 1 2 3 4 5 6 7 8 9 10 11 12 13 14 15 16 17
617
FTUS44 KLZK 210530
TAFBPK
TAF
KBPK 210530Z 2106/2206 32004KT P6SM -RA SCT050 OVC100
     FM210900 30005KT 4SM -RA BR SCT025 OVC050
      TEMPO 2109/2112 2SM RA BR OVC025
     FM211200 VRB04KT 3SM BR VCSH OVC015
     FM211800 34006KT P6SM BKN025 OVC050
     FM220200 36004KT P6SM BKN050=

USA.gov is the U.S. government's official web portal to all federal, state and local government web resources and services.